sensor_id;sensor_type;location;lat;lon;timestamp;P1;durP1;ratioP1;P2;durP2;ratioP2
37305;SDS011;23193;42.656;21.170;2023-07-20T00:01:05;26.50;;;7.90;;
37305;SDS011;23193;42.656;21.170;2023-07-20T00:03:31;31.83;;;8.40;;
37305;SDS011;23193;42.656;21.170;2023-07-20T00:05:57;31.92;;;8.07;;
37305;SDS011;23193;42.656;21.170;2023-07-20T00:08:23;40.45;;;9.13;;
37305;SDS011;23193;42.656;21.170;2023-07-20T00:10:50;40.90;;;8.85;;
37305;SDS011;23193;42.656;21.170;2023-07-20T00:13:16;36.28;;;8.32;;
37305;SDS011;23193;42.656;21.170;2023-07-20T00:15:44;35.92;;;7.85;;
37305;SDS011;23193;42.656;21.170;2023-07-20T00:18:10;29.10;;;7.22;;
37305;SDS011;23193;42.656;21.170;2023-07-20T00:20:36;33.40;;;7.88;;
37305;SDS011;23193;42.656;21.170;2023-07-20T00:23:02;22.20;;;7.40;;
37305;SDS011;23193;42.656;21.170;2023-07-20T00:25:29;28.40;;;8.35;;
37305;SDS011;23193;42.656;21.170;2023-07-20T00:27:55;39.33;;;8.23;;
37305;SDS011;23193;42.656;21.170;2023-07-20T00:30:21;42.20;;;8.82;;
37305;SDS011;23193;42.656;21.170;2023-07-20T00:32:47;38.72;;;7.68;;
37305;SDS011;23193;42.656;21.170;2023-07-20T00:35:13;48.15;;;7.47;;
37305;SDS011;23193;42.656;21.170;2023-07-20T00:37:39;31.13;;;7.93;;
37305;SDS011;23193;42.656;21.170;2023-07-20T00:40:06;26.90;;;7.80;;
37305;SDS011;23193;42.656;21.170;2023-07-20T00:42:32;33.88;;;7.53;;
37305;SDS011;23193;42.656;21.170;2023-07-20T00:44:59;38.17;;;7.13;;
37305;SDS011;23193;42.656;21.170;2023-07-20T00:47:25;29.63;;;7.50;;
37305;SDS011;23193;42.656;21.170;2023-07-20T00:49:52;35.83;;;7.70;;
37305;SDS011;23193;42.656;21.170;2023-07-20T00:52:19;29.00;;;5.93;;
37305;SDS011;23193;42.656;21.170;2023-07-20T00:54:46;18.80;;;6.40;;
37305;SDS011;23193;42.656;21.170;2023-07-20T00:57:15;22.10;;;6.50;;
37305;SDS011;23193;42.656;21.170;2023-07-20T00:59:43;35.58;;;6.57;;
37305;SDS011;23193;42.656;21.170;2023-07-20T01:02:09;32.30;;;5.75;;
37305;SDS011;23193;42.656;21.170;2023-07-20T01:04:35;32.15;;;5.63;;
37305;SDS011;23193;42.656;21.170;2023-07-20T01:07:17;35.55;;;6.78;;
37305;SDS011;23193;42.656;21.170;2023-07-20T01:14:51;25.38;;;6.20;;
37305;SDS011;23193;42.656;21.170;2023-07-20T01:17:18;21.08;;;5.88;;
37305;SDS011;23193;42.656;21.170;2023-07-20T01:19:44;27.05;;;6.28;;
37305;SDS011;23193;42.656;21.170;2023-07-20T01:32:45;43.20;;;7.47;;
37305;SDS011;23193;42.656;21.170;2023-07-20T01:35:13;26.92;;;6.60;;
37305;SDS011;23193;42.656;21.170;2023-07-20T01:37:40;27.70;;;6.25;;
37305;SDS011;23193;42.656;21.170;2023-07-20T01:40:07;33.28;;;6.65;;
37305;SDS011;23193;42.656;21.170;2023-07-20T01:42:33;49.45;;;7.90;;
37305;SDS011;23193;42.656;21.170;2023-07-20T01:45:00;36.92;;;7.03;;
37305;SDS011;23193;42.656;21.170;2023-07-20T01:47:26;28.45;;;6.13;;
37305;SDS011;23193;42.656;21.170;2023-07-20T01:49:52;33.60;;;6.25;;
37305;SDS011;23193;42.656;21.170;2023-07-20T01:52:18;34.28;;;6.95;;
37305;SDS011;23193;42.656;21.170;2023-07-20T01:54:44;30.08;;;6.78;;
37305;SDS011;23193;42.656;21.170;2023-07-20T01:57:10;22.80;;;6.75;;
37305;SDS011;23193;42.656;21.170;2023-07-20T01:59:36;29.45;;;6.22;;
37305;SDS011;23193;42.656;21.170;2023-07-20T02:02:02;28.25;;;6.90;;
37305;SDS011;23193;42.656;21.170;2023-07-20T02:04:29;27.70;;;6.85;;
37305;SDS011;23193;42.656;21.170;2023-07-20T02:06:55;27.02;;;6.75;;
37305;SDS011;23193;42.656;21.170;2023-07-20T02:09:21;25.17;;;7.30;;
37305;SDS011;23193;42.656;21.170;2023-07-20T02:11:47;30.42;;;6.70;;
37305;SDS011;23193;42.656;21.170;2023-07-20T02:14:13;26.80;;;6.45;;
37305;SDS011;23193;42.656;21.170;2023-07-20T02:16:39;26.85;;;7.85;;
37305;SDS011;23193;42.656;21.170;2023-07-20T02:19:05;24.52;;;6.85;;
37305;SDS011;23193;42.656;21.170;2023-07-20T02:21:32;16.27;;;7.50;;
37305;SDS011;23193;42.656;21.170;2023-07-20T02:23:58;27.23;;;7.82;;
37305;SDS011;23193;42.656;21.170;2023-07-20T02:26:25;21.13;;;7.38;;
37305;SDS011;23193;42.656;21.170;2023-07-20T02:28:51;25.08;;;7.72;;
37305;SDS011;23193;42.656;21.170;2023-07-20T02:31:17;30.75;;;7.45;;
37305;SDS011;23193;42.656;21.170;2023-07-20T02:33:43;28.73;;;7.03;;
37305;SDS011;23193;42.656;21.170;2023-07-20T02:36:09;42.53;;;8.05;;
37305;SDS011;23193;42.656;21.170;2023-07-20T02:38:35;27.20;;;6.65;;
37305;SDS011;23193;42.656;21.170;2023-07-20T02:41:01;34.95;;;7.90;;
37305;SDS011;23193;42.656;21.170;2023-07-20T02:43:27;20.45;;;6.65;;
37305;SDS011;23193;42.656;21.170;2023-07-20T02:45:54;21.00;;;6.40;;
37305;SDS011;23193;42.656;21.170;2023-07-20T02:48:20;20.55;;;6.68;;
37305;SDS011;23193;42.656;21.170;2023-07-20T02:50:46;24.48;;;7.07;;
37305;SDS011;23193;42.656;21.170;2023-07-20T02:53:13;19.67;;;6.80;;
37305;SDS011;23193;42.656;21.170;2023-07-20T02:55:39;37.78;;;7.90;;
37305;SDS011;23193;42.656;21.170;2023-07-20T02:58:05;21.85;;;7.00;;
37305;SDS011;23193;42.656;21.170;2023-07-20T03:00:31;27.48;;;7.25;;
37305;SDS011;23193;42.656;21.170;2023-07-20T03:02:57;28.58;;;7.18;;
37305;SDS011;23193;42.656;21.170;2023-07-20T03:05:23;30.88;;;7.10;;
37305;SDS011;23193;42.656;21.170;2023-07-20T03:07:53;17.70;;;6.75;;
37305;SDS011;23193;42.656;21.170;2023-07-20T03:10:19;27.25;;;7.28;;
37305;SDS011;23193;42.656;21.170;2023-07-20T03:12:45;18.08;;;7.50;;
37305;SDS011;23193;42.656;21.170;2023-07-20T03:15:11;36.45;;;8.50;;
37305;SDS011;23193;42.656;21.170;2023-07-20T03:17:37;24.55;;;8.32;;
37305;SDS011;23193;42.656;21.170;2023-07-20T03:20:03;24.30;;;8.18;;
37305;SDS011;23193;42.656;21.170;2023-07-20T03:22:34;29.52;;;7.80;;
37305;SDS011;23193;42.656;21.170;2023-07-20T03:25:00;29.85;;;7.82;;
37305;SDS011;23193;42.656;21.170;2023-07-20T03:27:26;29.08;;;7.82;;
37305;SDS011;23193;42.656;21.170;2023-07-20T03:29:54;16.55;;;7.47;;
37305;SDS011;23193;42.656;21.170;2023-07-20T03:32:20;21.88;;;7.63;;
37305;SDS011;23193;42.656;21.170;2023-07-20T03:34:46;31.13;;;8.25;;
37305;SDS011;23193;42.656;21.170;2023-07-20T03:37:13;25.40;;;8.25;;
37305;SDS011;23193;42.656;21.170;2023-07-20T03:39:39;22.35;;;8.05;;
37305;SDS011;23193;42.656;21.170;2023-07-20T03:42:05;22.63;;;7.32;;
37305;SDS011;23193;42.656;21.170;2023-07-20T03:44:32;30.92;;;6.80;;
37305;SDS011;23193;42.656;21.170;2023-07-20T03:46:58;27.05;;;8.10;;
37305;SDS011;23193;42.656;21.170;2023-07-20T03:49:24;22.25;;;9.43;;
37305;SDS011;23193;42.656;21.170;2023-07-20T03:51:50;28.70;;;9.35;;
37305;SDS011;23193;42.656;21.170;2023-07-20T03:54:16;25.88;;;9.40;;
37305;SDS011;23193;42.656;21.170;2023-07-20T03:56:44;23.73;;;9.90;;
37305;SDS011;23193;42.656;21.170;2023-07-20T03:59:10;29.00;;;10.57;;
37305;SDS011;23193;42.656;21.170;2023-07-20T04:01:36;26.00;;;9.82;;
37305;SDS011;23193;42.656;21.170;2023-07-20T04:04:05;29.02;;;9.07;;
37305;SDS011;23193;42.656;21.170;2023-07-20T04:06:32;28.90;;;8.65;;
37305;SDS011;23193;42.656;21.170;2023-07-20T04:08:58;31.33;;;8.60;;
37305;SDS011;23193;42.656;21.170;2023-07-20T04:11:24;27.88;;;9.07;;
37305;SDS011;23193;42.656;21.170;2023-07-20T04:13:50;31.60;;;8.38;;
37305;SDS011;23193;42.656;21.170;2023-07-20T04:16:16;28.55;;;7.85;;
37305;SDS011;23193;42.656;21.170;2023-07-20T04:18:42;24.65;;;8.38;;
37305;SDS011;23193;42.656;21.170;2023-07-20T04:21:08;26.48;;;7.20;;
37305;SDS011;23193;42.656;21.170;2023-07-20T04:23:35;25.23;;;7.80;;
37305;SDS011;23193;42.656;21.170;2023-07-20T04:26:01;22.70;;;7.75;;
37305;SDS011;23193;42.656;21.170;2023-07-20T04:28:28;29.45;;;8.50;;
37305;SDS011;23193;42.656;21.170;2023-07-20T04:30:54;23.60;;;8.02;;
37305;SDS011;23193;42.656;21.170;2023-07-20T04:33:20;40.38;;;10.35;;
37305;SDS011;23193;42.656;21.170;2023-07-20T04:35:53;34.78;;;14.02;;
37305;SDS011;23193;42.656;21.170;2023-07-20T04:38:19;34.53;;;13.88;;
37305;SDS011;23193;42.656;21.170;2023-07-20T04:40:46;38.17;;;13.73;;
37305;SDS011;23193;42.656;21.170;2023-07-20T04:43:13;31.85;;;11.77;;
37305;SDS011;23193;42.656;21.170;2023-07-20T04:45:40;42.05;;;15.93;;
37305;SDS011;23193;42.656;21.170;2023-07-20T04:48:08;46.60;;;13.90;;
37305;SDS011;23193;42.656;21.170;2023-07-20T04:50:35;37.45;;;13.43;;
37305;SDS011;23193;42.656;21.170;2023-07-20T04:53:02;41.90;;;12.75;;
37305;SDS011;23193;42.656;21.170;2023-07-20T04:55:28;38.22;;;11.52;;
37305;SDS011;23193;42.656;21.170;2023-07-20T04:57:54;46.55;;;11.45;;
37305;SDS011;23193;42.656;21.170;2023-07-20T05:00:20;43.45;;;11.73;;
37305;SDS011;23193;42.656;21.170;2023-07-20T05:02:47;43.50;;;12.73;;
37305;SDS011;23193;42.656;21.170;2023-07-20T05:05:14;41.13;;;10.63;;
37305;SDS011;23193;42.656;21.170;2023-07-20T05:07:40;37.70;;;10.35;;
37305;SDS011;23193;42.656;21.170;2023-07-20T05:10:06;41.10;;;9.85;;
37305;SDS011;23193;42.656;21.170;2023-07-20T05:12:33;31.13;;;10.73;;
37305;SDS011;23193;42.656;21.170;2023-07-20T05:14:59;37.38;;;9.65;;
37305;SDS011;23193;42.656;21.170;2023-07-20T05:17:25;40.80;;;9.30;;
37305;SDS011;23193;42.656;21.170;2023-07-20T05:19:51;59.90;;;10.85;;
37305;SDS011;23193;42.656;21.170;2023-07-20T05:22:17;45.42;;;10.15;;
37305;SDS011;23193;42.656;21.170;2023-07-20T05:24:43;48.15;;;10.63;;
37305;SDS011;23193;42.656;21.170;2023-07-20T05:27:09;36.67;;;10.38;;
37305;SDS011;23193;42.656;21.170;2023-07-20T05:29:36;54.17;;;9.65;;
37305;SDS011;23193;42.656;21.170;2023-07-20T05:32:02;39.88;;;13.15;;
37305;SDS011;23193;42.656;21.170;2023-07-20T05:34:28;40.35;;;12.77;;
37305;SDS011;23193;42.656;21.170;2023-07-20T05:36:54;32.10;;;10.35;;
37305;SDS011;23193;42.656;21.170;2023-07-20T05:39:21;41.33;;;10.20;;
37305;SDS011;23193;42.656;21.170;2023-07-20T05:41:47;43.72;;;10.45;;
37305;SDS011;23193;42.656;21.170;2023-07-20T05:44:13;29.13;;;8.27;;
37305;SDS011;23193;42.656;21.170;2023-07-20T05:46:39;35.33;;;7.78;;
37305;SDS011;23193;42.656;21.170;2023-07-20T05:49:05;30.23;;;7.72;;
37305;SDS011;23193;42.656;21.170;2023-07-20T05:51:31;24.42;;;6.40;;
37305;SDS011;23193;42.656;21.170;2023-07-20T05:53:58;26.20;;;6.70;;
37305;SDS011;23193;42.656;21.170;2023-07-20T05:56:24;24.00;;;5.72;;
37305;SDS011;23193;42.656;21.170;2023-07-20T05:58:50;20.10;;;5.95;;
37305;SDS011;23193;42.656;21.170;2023-07-20T06:01:16;28.05;;;6.28;;
37305;SDS011;23193;42.656;21.170;2023-07-20T06:03:44;22.00;;;6.00;;
37305;SDS011;23193;42.656;21.170;2023-07-20T06:06:10;17.05;;;5.07;;
37305;SDS011;23193;42.656;21.170;2023-07-20T06:08:37;25.98;;;6.65;;
37305;SDS011;23193;42.656;21.170;2023-07-20T06:11:03;21.50;;;7.05;;
37305;SDS011;23193;42.656;21.170;2023-07-20T06:13:29;21.42;;;7.00;;
37305;SDS011;23193;42.656;21.170;2023-07-20T06:15:56;16.88;;;5.93;;
37305;SDS011;23193;42.656;21.170;2023-07-20T06:18:22;21.75;;;6.20;;
37305;SDS011;23193;42.656;21.170;2023-07-20T06:20:52;33.67;;;8.00;;
37305;SDS011;23193;42.656;21.170;2023-07-20T06:23:18;22.67;;;6.53;;
37305;SDS011;23193;42.656;21.170;2023-07-20T06:25:45;31.08;;;6.15;;
37305;SDS011;23193;42.656;21.170;2023-07-20T06:28:12;21.92;;;5.95;;
37305;SDS011;23193;42.656;21.170;2023-07-20T06:30:38;22.30;;;6.38;;
37305;SDS011;23193;42.656;21.170;2023-07-20T06:33:05;24.45;;;7.00;;
37305;SDS011;23193;42.656;21.170;2023-07-20T06:35:31;24.13;;;5.88;;
37305;SDS011;23193;42.656;21.170;2023-07-20T06:37:58;23.70;;;7.00;;
37305;SDS011;23193;42.656;21.170;2023-07-20T06:40:25;36.25;;;7.45;;
37305;SDS011;23193;42.656;21.170;2023-07-20T06:42:51;26.67;;;6.72;;
37305;SDS011;23193;42.656;21.170;2023-07-20T06:45:18;26.33;;;6.28;;
37305;SDS011;23193;42.656;21.170;2023-07-20T06:47:44;34.20;;;6.25;;
37305;SDS011;23193;42.656;21.170;2023-07-20T06:50:10;37.63;;;6.22;;
37305;SDS011;23193;42.656;21.170;2023-07-20T06:52:36;39.38;;;6.72;;
37305;SDS011;23193;42.656;21.170;2023-07-20T06:55:03;42.08;;;6.97;;
37305;SDS011;23193;42.656;21.170;2023-07-20T06:57:29;29.60;;;6.35;;
37305;SDS011;23193;42.656;21.170;2023-07-20T06:59:55;29.88;;;6.50;;
37305;SDS011;23193;42.656;21.170;2023-07-20T07:02:22;28.00;;;5.47;;
37305;SDS011;23193;42.656;21.170;2023-07-20T07:04:48;42.25;;;7.10;;
37305;SDS011;23193;42.656;21.170;2023-07-20T07:07:14;25.38;;;5.82;;
37305;SDS011;23193;42.656;21.170;2023-07-20T07:09:41;29.80;;;5.80;;
37305;SDS011;23193;42.656;21.170;2023-07-20T07:12:07;26.58;;;6.38;;
37305;SDS011;23193;42.656;21.170;2023-07-20T07:14:33;18.23;;;5.25;;
37305;SDS011;23193;42.656;21.170;2023-07-20T07:17:00;23.60;;;6.85;;
37305;SDS011;23193;42.656;21.170;2023-07-20T07:19:26;23.40;;;5.90;;
37305;SDS011;23193;42.656;21.170;2023-07-20T07:21:52;30.50;;;5.55;;
37305;SDS011;23193;42.656;21.170;2023-07-20T07:24:18;16.38;;;5.10;;
37305;SDS011;23193;42.656;21.170;2023-07-20T07:26:44;21.85;;;5.53;;
37305;SDS011;23193;42.656;21.170;2023-07-20T07:29:11;23.20;;;5.35;;
37305;SDS011;23193;42.656;21.170;2023-07-20T07:31:37;24.45;;;5.10;;
37305;SDS011;23193;42.656;21.170;2023-07-20T07:34:03;21.60;;;4.75;;
37305;SDS011;23193;42.656;21.170;2023-07-20T07:36:30;24.85;;;5.40;;
37305;SDS011;23193;42.656;21.170;2023-07-20T07:38:56;18.83;;;4.40;;
37305;SDS011;23193;42.656;21.170;2023-07-20T07:41:23;13.23;;;4.70;;
37305;SDS011;23193;42.656;21.170;2023-07-20T07:43:49;25.25;;;4.40;;
37305;SDS011;23193;42.656;21.170;2023-07-20T07:46:15;58.30;;;6.95;;
37305;SDS011;23193;42.656;21.170;2023-07-20T07:48:42;17.80;;;3.63;;
37305;SDS011;23193;42.656;21.170;2023-07-20T07:51:08;13.38;;;3.70;;
37305;SDS011;23193;42.656;21.170;2023-07-20T07:53:34;9.73;;;3.30;;
37305;SDS011;23193;42.656;21.170;2023-07-20T07:56:02;18.42;;;3.83;;
37305;SDS011;23193;42.656;21.170;2023-07-20T07:58:28;18.02;;;4.22;;
37305;SDS011;23193;42.656;21.170;2023-07-20T08:00:54;14.35;;;3.25;;
37305;SDS011;23193;42.656;21.170;2023-07-20T08:03:21;18.60;;;3.83;;
37305;SDS011;23193;42.656;21.170;2023-07-20T08:05:49;10.85;;;3.30;;
37305;SDS011;23193;42.656;21.170;2023-07-20T08:08:15;13.98;;;4.45;;
37305;SDS011;23193;42.656;21.170;2023-07-20T08:10:41;28.33;;;3.67;;
37305;SDS011;23193;42.656;21.170;2023-07-20T08:13:07;17.45;;;3.97;;
37305;SDS011;23193;42.656;21.170;2023-07-20T08:15:34;18.70;;;3.95;;
37305;SDS011;23193;42.656;21.170;2023-07-20T08:18:00;11.40;;;4.05;;
37305;SDS011;23193;42.656;21.170;2023-07-20T08:20:26;13.70;;;4.03;;
37305;SDS011;23193;42.656;21.170;2023-07-20T08:22:53;10.43;;;3.28;;
37305;SDS011;23193;42.656;21.170;2023-07-20T08:25:20;8.95;;;3.17;;
37305;SDS011;23193;42.656;21.170;2023-07-20T08:27:46;12.13;;;3.88;;
37305;SDS011;23193;42.656;21.170;2023-07-20T08:30:13;12.70;;;3.70;;
37305;SDS011;23193;42.656;21.170;2023-07-20T08:32:39;12.77;;;3.17;;
37305;SDS011;23193;42.656;21.170;2023-07-20T08:35:05;14.23;;;3.53;;
37305;SDS011;23193;42.656;21.170;2023-07-20T08:37:32;7.75;;;2.95;;
37305;SDS011;23193;42.656;21.170;2023-07-20T08:39:58;17.98;;;3.50;;
37305;SDS011;23193;42.656;21.170;2023-07-20T08:42:24;18.23;;;3.42;;
37305;SDS011;23193;42.656;21.170;2023-07-20T08:44:52;11.32;;;3.22;;
37305;SDS011;23193;42.656;21.170;2023-07-20T08:47:19;17.40;;;3.75;;
37305;SDS011;23193;42.656;21.170;2023-07-20T08:49:48;14.82;;;3.25;;
37305;SDS011;23193;42.656;21.170;2023-07-20T08:52:14;24.20;;;4.13;;
37305;SDS011;23193;42.656;21.170;2023-07-20T08:54:41;17.42;;;3.30;;
37305;SDS011;23193;42.656;21.170;2023-07-20T08:57:07;15.65;;;3.78;;
37305;SDS011;23193;42.656;21.170;2023-07-20T08:59:34;10.70;;;3.28;;
37305;SDS011;23193;42.656;21.170;2023-07-20T09:02:02;7.80;;;3.22;;
37305;SDS011;23193;42.656;21.170;2023-07-20T09:04:30;25.42;;;3.92;;
37305;SDS011;23193;42.656;21.170;2023-07-20T09:06:56;8.13;;;3.88;;
37305;SDS011;23193;42.656;21.170;2023-07-20T09:09:23;11.40;;;3.35;;
37305;SDS011;23193;42.656;21.170;2023-07-20T09:11:49;14.80;;;4.00;;
37305;SDS011;23193;42.656;21.170;2023-07-20T09:14:15;20.42;;;3.83;;
37305;SDS011;23193;42.656;21.170;2023-07-20T09:17:15;14.05;;;3.58;;
37305;SDS011;23193;42.656;21.170;2023-07-20T09:22:20;14.07;;;3.50;;
37305;SDS011;23193;42.656;21.170;2023-07-20T09:24:46;13.50;;;3.13;;
37305;SDS011;23193;42.656;21.170;2023-07-20T09:27:12;13.38;;;3.78;;
37305;SDS011;23193;42.656;21.170;2023-07-20T09:29:57;27.13;;;4.25;;
37305;SDS011;23193;42.656;21.170;2023-07-20T09:32:23;13.07;;;3.72;;
37305;SDS011;23193;42.656;21.170;2023-07-20T09:34:49;17.15;;;3.85;;
37305;SDS011;23193;42.656;21.170;2023-07-20T09:37:21;17.27;;;3.97;;
37305;SDS011;23193;42.656;21.170;2023-07-20T09:39:52;22.27;;;4.22;;
37305;SDS011;23193;42.656;21.170;2023-07-20T09:42:19;18.52;;;4.72;;
37305;SDS011;23193;42.656;21.170;2023-07-20T09:44:47;40.17;;;5.53;;
37305;SDS011;23193;42.656;21.170;2023-07-20T09:47:14;16.83;;;3.63;;
37305;SDS011;23193;42.656;21.170;2023-07-20T09:49:47;17.98;;;4.13;;
37305;SDS011;23193;42.656;21.170;2023-07-20T09:52:14;13.77;;;4.03;;
37305;SDS011;23193;42.656;21.170;2023-07-20T09:54:40;21.42;;;5.20;;
37305;SDS011;23193;42.656;21.170;2023-07-20T09:57:08;11.82;;;4.15;;
37305;SDS011;23193;42.656;21.170;2023-07-20T09:59:37;12.68;;;3.60;;
37305;SDS011;23193;42.656;21.170;2023-07-20T10:02:04;12.57;;;3.25;;
37305;SDS011;23193;42.656;21.170;2023-07-20T10:04:33;10.68;;;3.78;;
37305;SDS011;23193;42.656;21.170;2023-07-20T10:07:00;17.73;;;3.88;;
37305;SDS011;23193;42.656;21.170;2023-07-20T10:09:30;20.85;;;4.38;;
37305;SDS011;23193;42.656;21.170;2023-07-20T10:11:57;18.48;;;5.20;;
37305;SDS011;23193;42.656;21.170;2023-07-20T10:14:24;29.92;;;12.82;;
37305;SDS011;23193;42.656;21.170;2023-07-20T10:16:58;23.35;;;10.57;;
37305;SDS011;23193;42.656;21.170;2023-07-20T10:19:43;23.23;;;4.93;;
37305;SDS011;23193;42.656;21.170;2023-07-20T10:22:12;21.73;;;4.65;;
37305;SDS011;23193;42.656;21.170;2023-07-20T10:24:38;24.60;;;4.85;;
37305;SDS011;23193;42.656;21.170;2023-07-20T10:27:05;31.60;;;6.07;;
37305;SDS011;23193;42.656;21.170;2023-07-20T10:29:31;26.42;;;5.70;;
37305;SDS011;23193;42.656;21.170;2023-07-20T10:31:58;30.58;;;6.47;;
37305;SDS011;23193;42.656;21.170;2023-07-20T10:34:24;41.33;;;10.23;;
37305;SDS011;23193;42.656;21.170;2023-07-20T10:36:50;80.28;;;12.75;;
37305;SDS011;23193;42.656;21.170;2023-07-20T10:39:24;56.00;;;11.90;;
37305;SDS011;23193;42.656;21.170;2023-07-20T10:42:13;62.22;;;13.80;;
37305;SDS011;23193;42.656;21.170;2023-07-20T10:44:39;65.13;;;12.15;;
37305;SDS011;23193;42.656;21.170;2023-07-20T10:47:12;56.70;;;10.80;;
37305;SDS011;23193;42.656;21.170;2023-07-20T10:49:57;78.38;;;17.13;;
37305;SDS011;23193;42.656;21.170;2023-07-20T10:52:25;67.93;;;14.75;;
37305;SDS011;23193;42.656;21.170;2023-07-20T10:54:51;65.07;;;13.60;;
37305;SDS011;23193;42.656;21.170;2023-07-20T10:57:21;91.50;;;17.27;;
37305;SDS011;23193;42.656;21.170;2023-07-20T10:59:48;74.68;;;15.68;;
37305;SDS011;23193;42.656;21.170;2023-07-20T11:02:17;80.85;;;17.02;;
37305;SDS011;23193;42.656;21.170;2023-07-20T11:04:46;92.43;;;17.23;;
37305;SDS011;23193;42.656;21.170;2023-07-20T11:07:17;89.30;;;15.65;;
37305;SDS011;23193;42.656;21.170;2023-07-20T11:09:43;89.13;;;17.98;;
37305;SDS011;23193;42.656;21.170;2023-07-20T11:12:10;81.85;;;16.13;;
37305;SDS011;23193;42.656;21.170;2023-07-20T11:14:53;94.13;;;18.85;;
37305;SDS011;23193;42.656;21.170;2023-07-20T11:17:20;90.53;;;17.88;;
37305;SDS011;23193;42.656;21.170;2023-07-20T11:19:58;82.70;;;17.17;;
37305;SDS011;23193;42.656;21.170;2023-07-20T11:22:26;84.25;;;17.50;;
37305;SDS011;23193;42.656;21.170;2023-07-20T11:24:55;100.85;;;19.63;;
37305;SDS011;23193;42.656;21.170;2023-07-20T11:27:22;105.38;;;19.55;;
37305;SDS011;23193;42.656;21.170;2023-07-20T11:29:48;102.22;;;23.83;;
37305;SDS011;23193;42.656;21.170;2023-07-20T11:32:22;99.43;;;21.98;;
37305;SDS011;23193;42.656;21.170;2023-07-20T11:34:48;81.53;;;19.23;;
37305;SDS011;23193;42.656;21.170;2023-07-20T11:37:15;92.70;;;17.98;;
37305;SDS011;23193;42.656;21.170;2023-07-20T11:42:32;74.85;;;15.35;;
37305;SDS011;23193;42.656;21.170;2023-07-20T11:44:58;62.05;;;13.85;;
37305;SDS011;23193;42.656;21.170;2023-07-20T11:47:28;75.97;;;16.10;;
37305;SDS011;23193;42.656;21.170;2023-07-20T11:49:55;60.63;;;13.45;;
37305;SDS011;23193;42.656;21.170;2023-07-20T11:52:28;62.13;;;13.88;;
37305;SDS011;23193;42.656;21.170;2023-07-20T11:54:54;78.07;;;14.27;;
37305;SDS011;23193;42.656;21.170;2023-07-20T11:57:21;74.15;;;14.13;;
37305;SDS011;23193;42.656;21.170;2023-07-20T11:59:56;65.85;;;13.82;;
37305;SDS011;23193;42.656;21.170;2023-07-20T12:02:24;79.25;;;23.05;;
37305;SDS011;23193;42.656;21.170;2023-07-20T12:04:50;61.35;;;13.38;;
37305;SDS011;23193;42.656;21.170;2023-07-20T12:07:21;51.33;;;11.65;;
37305;SDS011;23193;42.656;21.170;2023-07-20T12:10:05;43.25;;;10.30;;
37305;SDS011;23193;42.656;21.170;2023-07-20T12:12:32;58.75;;;10.00;;
37305;SDS011;23193;42.656;21.170;2023-07-20T12:17:48;43.15;;;9.18;;
37305;SDS011;23193;42.656;21.170;2023-07-20T12:20:25;39.45;;;8.40;;
37305;SDS011;23193;42.656;21.170;2023-07-20T12:22:52;32.72;;;7.78;;
37305;SDS011;23193;42.656;21.170;2023-07-20T12:25:19;29.92;;;7.10;;
37305;SDS011;23193;42.656;21.170;2023-07-20T12:27:45;37.95;;;7.50;;
37305;SDS011;23193;42.656;21.170;2023-07-20T12:30:12;21.48;;;6.25;;
37305;SDS011;23193;42.656;21.170;2023-07-20T12:32:42;26.63;;;7.57;;
37305;SDS011;23193;42.656;21.170;2023-07-20T12:35:08;31.45;;;7.72;;
37305;SDS011;23193;42.656;21.170;2023-07-20T12:37:36;23.75;;;5.60;;
37305;SDS011;23193;42.656;21.170;2023-07-20T12:40:02;20.30;;;6.15;;
37305;SDS011;23193;42.656;21.170;2023-07-20T12:42:29;21.88;;;9.50;;
37305;SDS011;23193;42.656;21.170;2023-07-20T12:44:55;29.00;;;9.38;;
37305;SDS011;23193;42.656;21.170;2023-07-20T12:47:21;28.55;;;7.05;;
37305;SDS011;23193;42.656;21.170;2023-07-20T12:49:47;24.45;;;7.25;;
37305;SDS011;23193;42.656;21.170;2023-07-20T12:52:13;29.67;;;7.32;;
37305;SDS011;23193;42.656;21.170;2023-07-20T12:54:39;25.92;;;6.80;;
37305;SDS011;23193;42.656;21.170;2023-07-20T12:57:06;36.70;;;8.55;;
37305;SDS011;23193;42.656;21.170;2023-07-20T12:59:32;37.75;;;8.23;;
37305;SDS011;23193;42.656;21.170;2023-07-20T13:01:59;24.83;;;6.32;;
37305;SDS011;23193;42.656;21.170;2023-07-20T13:04:25;39.20;;;7.78;;
37305;SDS011;23193;42.656;21.170;2023-07-20T13:06:51;35.03;;;7.78;;
37305;SDS011;23193;42.656;21.170;2023-07-20T13:09:17;29.20;;;6.22;;
37305;SDS011;23193;42.656;21.170;2023-07-20T13:11:43;45.38;;;8.70;;
37305;SDS011;23193;42.656;21.170;2023-07-20T13:14:11;36.85;;;6.57;;
37305;SDS011;23193;42.656;21.170;2023-07-20T13:16:37;33.00;;;7.18;;
37305;SDS011;23193;42.656;21.170;2023-07-20T13:19:03;34.10;;;8.15;;
37305;SDS011;23193;42.656;21.170;2023-07-20T13:21:29;28.40;;;6.85;;
37305;SDS011;23193;42.656;21.170;2023-07-20T13:23:55;62.80;;;8.40;;
37305;SDS011;23193;42.656;21.170;2023-07-20T13:26:21;35.05;;;8.63;;
37305;SDS011;23193;42.656;21.170;2023-07-20T13:28:47;40.97;;;6.95;;
37305;SDS011;23193;42.656;21.170;2023-07-20T13:31:14;25.63;;;6.65;;
37305;SDS011;23193;42.656;21.170;2023-07-20T13:33:42;24.60;;;5.85;;
37305;SDS011;23193;42.656;21.170;2023-07-20T13:36:08;28.55;;;6.82;;
37305;SDS011;23193;42.656;21.170;2023-07-20T13:38:34;29.38;;;6.95;;
37305;SDS011;23193;42.656;21.170;2023-07-20T13:41:01;39.17;;;6.47;;
37305;SDS011;23193;42.656;21.170;2023-07-20T13:43:27;28.10;;;7.15;;
37305;SDS011;23193;42.656;21.170;2023-07-20T13:45:53;33.17;;;7.93;;
37305;SDS011;23193;42.656;21.170;2023-07-20T13:48:19;28.30;;;7.32;;
37305;SDS011;23193;42.656;21.170;2023-07-20T13:50:48;31.23;;;7.95;;
37305;SDS011;23193;42.656;21.170;2023-07-20T13:53:14;33.95;;;7.82;;
37305;SDS011;23193;42.656;21.170;2023-07-20T13:55:41;35.78;;;6.85;;
37305;SDS011;23193;42.656;21.170;2023-07-20T13:58:08;31.02;;;7.10;;
37305;SDS011;23193;42.656;21.170;2023-07-20T14:00:35;41.83;;;7.78;;
37305;SDS011;23193;42.656;21.170;2023-07-20T14:03:01;28.30;;;7.38;;
37305;SDS011;23193;42.656;21.170;2023-07-20T14:05:28;30.17;;;7.35;;
37305;SDS011;23193;42.656;21.170;2023-07-20T14:07:54;24.67;;;7.40;;
37305;SDS011;23193;42.656;21.170;2023-07-20T14:10:20;23.55;;;7.10;;
37305;SDS011;23193;42.656;21.170;2023-07-20T14:12:46;33.95;;;8.20;;
37305;SDS011;23193;42.656;21.170;2023-07-20T14:15:12;36.55;;;7.80;;
37305;SDS011;23193;42.656;21.170;2023-07-20T14:17:39;36.97;;;7.85;;
37305;SDS011;23193;42.656;21.170;2023-07-20T14:20:05;52.58;;;9.13;;
37305;SDS011;23193;42.656;21.170;2023-07-20T14:22:33;15.75;;;4.85;;
37305;SDS011;23193;42.656;21.170;2023-07-20T14:24:59;22.40;;;3.60;;
37305;SDS011;23193;42.656;21.170;2023-07-20T14:27:25;19.35;;;4.28;;
37305;SDS011;23193;42.656;21.170;2023-07-20T14:29:53;28.70;;;4.05;;
37305;SDS011;23193;42.656;21.170;2023-07-20T14:32:20;17.98;;;4.10;;
37305;SDS011;23193;42.656;21.170;2023-07-20T14:34:47;11.43;;;3.53;;
37305;SDS011;23193;42.656;21.170;2023-07-20T14:37:13;13.85;;;4.05;;
37305;SDS011;23193;42.656;21.170;2023-07-20T14:39:39;18.08;;;4.13;;
37305;SDS011;23193;42.656;21.170;2023-07-20T14:42:05;14.73;;;3.50;;